Time;durP1;ratioP1;P1;durP2;ratioP2;P2;SDS_P1;SDS_P2;PMS_P1;PMS_P2;Temp;Humidity;BMP_temperature;BMP_pressure;BME280_temperature;BME280_humidity;BME280_pressure;Samples;Min_cycle;Max_cycle;Signal;HPM_P1;HPM_P2
2023/08/29 00:01:54;;;;;;;;;;;15.40;84.20;;;;;;5061232;28;20409;-87
2023/08/29 00:04:20;;;;;;;;;;;15.40;84.10;;;;;;5062260;28;19936;-87
2023/08/29 00:06:45;;;;;;;;;;;15.30;84.40;;;;;;5059097;28;19912;-87
2023/08/29 00:09:10;;;;;;;;;;;15.30;84.50;;;;;;5061132;28;19912;-87
2023/08/29 00:11:36;;;;;;;;;;;15.30;84.30;;;;;;5060395;28;19917;-87
2023/08/29 00:14:02;;;;;;;;;;;15.20;84.80;;;;;;5059914;28;19913;-86
2023/08/29 00:16:27;;;;;;;;;;;15.20;84.70;;;;;;5079288;28;19912;-87
2023/08/29 00:18:52;;;;;;;;;;;15.30;84.50;;;;;;5082683;28;20003;-89
2023/08/29 00:21:18;;;;;;;;;;;15.40;83.90;;;;;;5065513;28;19980;-88
2023/08/29 00:23:45;;;;;;;;;;;15.40;83.70;;;;;;5061740;28;19912;-86
2023/08/29 00:26:11;;;;;;;;;;;15.30;83.80;;;;;;5062249;28;19913;-87
2023/08/29 00:28:36;;;;;;;;;;;15.20;83.70;;;;;;5065825;28;19983;-86
2023/08/29 00:31:02;;;;;;;;;;;15.20;84.10;;;;;;5072353;28;20011;-86
2023/08/29 00:33:27;;;;;;;;;;;15.10;84.20;;;;;;5061032;28;19913;-87
2023/08/29 00:35:53;;;;;;;;;;;15.10;84.50;;;;;;5062089;28;19909;-86
2023/08/29 00:38:18;;;;;;;;;;;15.10;84.50;;;;;;5079865;28;19912;-86
2023/08/29 00:40:44;;;;;;;;;;;15.10;84.50;;;;;;5059597;28;19959;-86
2023/08/29 00:43:09;;;;;;;;;;;15.00;84.60;;;;;;5077612;28;20019;-87
2023/08/29 00:45:36;;;;;;;;;;;15.00;85.00;;;;;;5059656;28;20306;-87
2023/08/29 00:48:02;;;;;;;;;;;15.10;84.80;;;;;;5060471;28;19916;-87
2023/08/29 00:50:29;;;;;;;;;;;15.00;85.10;;;;;;5076597;28;19930;-87
2023/08/29 00:52:58;;;;;;;;;;;15.10;84.70;;;;;;5050961;28;19913;-86
2023/08/29 00:55:24;;;;;;;;;;;15.10;84.90;;;;;;5060442;28;19995;-87
2023/08/29 00:57:55;;;;;;;;;;;15.10;84.90;;;;;;5054987;28;20283;-86
2023/08/29 01:00:24;;;;;;;;;;;15.10;85.00;;;;;;5080307;28;19984;-87
2023/08/29 01:02:50;;;;;;;;;;;15.10;85.20;;;;;;5079570;28;19921;-86
2023/08/29 01:05:15;;;;;;;;;;;15.20;84.60;;;;;;5060324;28;19935;-87
2023/08/29 02:09:03;;;;;;;;;;;15.00;85.00;;;;;;5098743;28;19922;-89
2023/08/29 02:11:28;;;;;;;;;;;14.90;85.00;;;;;;5101389;28;19911;-89
2023/08/29 02:13:54;;;;;;;;;;;15.00;84.80;;;;;;5083529;28;19928;-90
2023/08/29 02:16:19;;;;;;;;;;;14.90;85.20;;;;;;5083184;28;20331;-86
2023/08/29 02:18:45;;;;;;;;;;;14.80;85.60;;;;;;5065627;28;19918;-87
2023/08/29 02:21:10;;;;;;;;;;;14.80;86.00;;;;;;5066988;28;20358;-86
2023/08/29 02:23:36;;;;;;;;;;;14.90;85.90;;;;;;5088928;28;19916;-86
2023/08/29 02:26:02;;;;;;;;;;;15.10;85.60;;;;;;5065424;28;20067;-86
2023/08/29 02:28:28;;;;;;;;;;;15.00;85.90;;;;;;5068817;28;19919;-86
2023/08/29 02:30:54;;;;;;;;;;;15.00;85.80;;;;;;4674717;22;19928;-87
2023/08/29 02:33:20;;;;;;;;;;;15.20;85.10;;;;;;5070292;28;19913;-87
2023/08/29 02:35:45;;;;;;;;;;;15.10;84.50;;;;;;5055056;28;19987;-86
2023/08/29 02:38:11;;;;;;;;;;;15.10;84.40;;;;;;5074483;28;19916;-87
2023/08/29 02:40:36;;;;;;;;;;;15.00;84.90;;;;;;5067395;28;20334;-87
2023/08/29 02:43:02;;;;;;;;;;;15.00;85.50;;;;;;5048984;28;19912;-87
2023/08/29 02:45:28;;;;;;;;;;;14.90;85.40;;;;;;5056978;28;19913;-86
2023/08/29 02:47:53;;;;;;;;;;;15.00;85.20;;;;;;5041431;28;19928;-86
2023/08/29 02:50:19;;;;;;;;;;;15.10;84.70;;;;;;5062177;28;20009;-87
2023/08/29 02:52:44;;;;;;;;;;;15.10;84.80;;;;;;5061759;28;19909;-87
2023/08/29 02:55:10;;;;;;;;;;;15.10;84.90;;;;;;5060152;28;20095;-87
2023/08/29 02:57:35;;;;;;;;;;;15.00;85.00;;;;;;5056276;28;19912;-87
2023/08/29 03:00:01;;;;;;;;;;;15.00;85.10;;;;;;5051085;28;19968;-87
2023/08/29 03:02:26;;;;;;;;;;;15.00;85.00;;;;;;5038714;28;20642;-87
2023/08/29 03:04:51;;;;;;;;;;;14.90;85.90;;;;;;5037873;28;20390;-87
2023/08/29 03:07:17;;;;;;;;;;;14.90;85.70;;;;;;5055914;28;19913;-87
2023/08/29 03:09:42;;;;;;;;;;;15.00;85.90;;;;;;5059564;28;20030;-87
2023/08/29 03:12:08;;;;;;;;;;;15.00;85.00;;;;;;5061013;28;19908;-87
2023/08/29 03:14:33;;;;;;;;;;;14.90;85.40;;;;;;5068181;28;20378;-87
2023/08/29 03:16:59;;;;;;;;;;;14.80;85.60;;;;;;5061347;28;19912;-87
2023/08/29 03:19:24;;;;;;;;;;;14.90;85.70;;;;;;5054621;28;19916;-87
2023/08/29 03:21:49;;;;;;;;;;;14.90;85.60;;;;;;5050252;28;19936;-87
2023/08/29 03:24:15;;;;;;;;;;;14.80;86.20;;;;;;5044423;28;19938;-87
2023/08/29 03:26:40;;;;;;;;;;;14.70;86.30;;;;;;5050141;28;19920;-87
2023/08/29 03:29:06;;;;;;;;;;;14.80;86.20;;;;;;5041878;28;19921;-87
2023/08/29 03:31:31;;;;;;;;;;;14.80;85.40;;;;;;5050093;28;19924;-87
2023/08/29 03:33:57;;;;;;;;;;;14.80;85.40;;;;;;5046678;28;19913;-87
2023/08/29 03:36:22;;;;;;;;;;;14.80;85.30;;;;;;5037375;28;19917;-88
2023/08/29 03:38:48;;;;;;;;;;;14.70;85.00;;;;;;5055913;28;20401;-87
2023/08/29 03:41:13;;;;;;;;;;;14.80;85.00;;;;;;5043615;28;19912;-87
2023/08/29 03:43:39;;;;;;;;;;;14.70;85.20;;;;;;5037805;28;19916;-87
2023/08/29 03:46:05;;;;;;;;;;;14.60;85.40;;;;;;5043400;28;19916;-87
2023/08/29 03:48:31;;;;;;;;;;;14.70;85.10;;;;;;5042251;28;19913;-87
2023/08/29 03:50:58;;;;;;;;;;;14.60;85.30;;;;;;5046681;28;19955;-86
2023/08/29 03:53:24;;;;;;;;;;;14.50;85.60;;;;;;5053978;28;19913;-86
2023/08/29 03:55:49;;;;;;;;;;;14.50;85.40;;;;;;5053510;28;20351;-87
2023/08/29 03:58:15;;;;;;;;;;;14.50;85.80;;;;;;5046222;28;19908;-88
2023/08/29 04:00:41;;;;;;;;;;;14.40;85.70;;;;;;5053063;28;19928;-87
2023/08/29 04:03:07;;;;;;;;;;;14.40;85.70;;;;;;5046213;28;20282;-87
2023/08/29 04:05:34;;;;;;;;;;;14.40;85.70;;;;;;5053502;28;19921;-87
2023/08/29 04:08:01;;;;;;;;;;;14.30;85.90;;;;;;5040047;28;19917;-88
2023/08/29 04:10:27;;;;;;;;;;;14.40;85.70;;;;;;5055771;28;20001;-88
2023/08/29 04:12:55;;;;;;;;;;;14.40;85.60;;;;;;5043994;28;19921;-88
2023/08/29 04:15:24;;;;;;;;;;;14.50;84.60;;;;;;5052213;28;19921;-87
2023/08/29 04:17:54;;;;;;;;;;;14.30;85.20;;;;;;5052061;28;20000;-88
2023/08/29 04:20:21;;;;;;;;;;;14.30;85.40;;;;;;5050467;28;20006;-88
2023/08/29 04:22:46;;;;;;;;;;;14.40;85.20;;;;;;5037131;28;19913;-88
2023/08/29 04:25:12;;;;;;;;;;;14.40;85.10;;;;;;5054818;28;19919;-88
2023/08/29 04:27:38;;;;;;;;;;;14.30;85.10;;;;;;5038093;28;19917;-87
2023/08/29 04:30:04;;;;;;;;;;;14.10;85.30;;;;;;5037031;28;19917;-88
2023/08/29 04:32:34;;;;;;;;;;;14.10;85.40;;;;;;5052114;28;19917;-87
2023/08/29 04:35:08;;;;;;;;;;;14.10;85.50;;;;;;5058114;28;19962;-88
2023/08/29 04:37:34;;;;;;;;;;;14.20;85.20;;;;;;5059275;28;19920;-88
2023/08/29 04:40:00;;;;;;;;;;;14.10;85.60;;;;;;5038754;28;20378;-87
2023/08/29 04:42:25;;;;;;;;;;;14.10;86.10;;;;;;5055313;28;19962;-88
2023/08/29 04:44:53;;;;;;;;;;;14.00;86.20;;;;;;5052729;28;19963;-88
2023/08/29 04:47:22;;;;;;;;;;;14.10;85.90;;;;;;5052295;28;19913;-88
2023/08/29 04:49:47;;;;;;;;;;;14.10;85.60;;;;;;5038432;28;19927;-87
2023/08/29 04:52:13;;;;;;;;;;;14.10;85.20;;;;;;5037551;28;20425;-86
2023/08/29 04:54:38;;;;;;;;;;;14.10;85.00;;;;;;5041605;28;20297;-88
2023/08/29 04:57:04;;;;;;;;;;;14.10;85.90;;;;;;5041492;28;19917;-88
2023/08/29 04:59:29;;;;;;;;;;;14.10;86.00;;;;;;5051407;28;19966;-86
2023/08/29 05:01:55;;;;;;;;;;;14.20;85.50;;;;;;5044636;28;20061;-86
2023/08/29 05:04:20;;;;;;;;;;;14.20;85.40;;;;;;5052456;28;19920;-85
2023/08/29 05:06:46;;;;;;;;;;;14.10;86.10;;;;;;5051960;28;19921;-84
2023/08/29 05:09:11;;;;;;;;;;;14.20;86.10;;;;;;5051535;28;20000;-86
2023/08/29 05:11:37;;;;;;;;;;;14.20;85.80;;;;;;5049534;28;19966;-86
2023/08/29 05:14:02;;;;;;;;;;;14.30;85.80;;;;;;5035346;28;20201;-86
2023/08/29 05:16:28;;;;;;;;;;;14.40;85.50;;;;;;5033875;28;20386;-86
2023/08/29 05:18:53;;;;;;;;;;;14.30;85.70;;;;;;5030742;28;19920;-85
2023/08/29 05:21:19;;;;;;;;;;;14.30;86.20;;;;;;5035445;28;20353;-86
2023/08/29 05:23:44;;;;;;;;;;;14.30;86.00;;;;;;5035472;28;20440;-87
2023/08/29 05:26:10;;;;;;;;;;;14.30;86.20;;;;;;5046492;28;20646;-88
2023/08/29 05:28:35;;;;;;;;;;;14.30;86.00;;;;;;5051559;28;19928;-89
2023/08/29 05:31:01;;;;;;;;;;;14.40;86.10;;;;;;5046813;28;19928;-88
2023/08/29 05:33:26;;;;;;;;;;;14.50;85.90;;;;;;5049233;28;19913;-88
2023/08/29 05:36:27;;;;;;;;;;;14.50;85.80;;;;;;5047921;28;19978;-90
2023/08/29 05:38:52;;;;;;;;;;;14.50;85.70;;;;;;5007056;28;19928;-88
2023/08/29 05:41:18;;;;;;;;;;;14.50;85.30;;;;;;5048253;28;19909;-86
2023/08/29 05:43:43;;;;;;;;;;;14.50;85.20;;;;;;5052967;28;19909;-86
2023/08/29 05:46:09;;;;;;;;;;;14.60;84.80;;;;;;5051679;28;20012;-86
2023/08/29 05:48:34;;;;;;;;;;;14.60;84.80;;;;;;5051607;28;19913;-86
2023/08/29 05:51:01;;;;;;;;;;;14.70;84.80;;;;;;5050818;28;22364;-87
2023/08/29 05:53:27;;;;;;;;;;;14.80;85.10;;;;;;5051807;28;19995;-86
2023/08/29 05:55:52;;;;;;;;;;;14.80;85.10;;;;;;5048927;28;19909;-85
2023/08/29 05:58:18;;;;;;;;;;;14.80;85.50;;;;;;5025017;28;19916;-86
2023/08/29 06:00:44;;;;;;;;;;;14.80;85.10;;;;;;5024913;28;19909;-86
2023/08/29 06:03:09;;;;;;;;;;;14.70;84.80;;;;;;5055381;28;19933;-86
2023/08/29 06:05:36;;;;;;;;;;;14.80;85.00;;;;;;5054351;28;19916;-86
2023/08/29 06:08:02;;;;;;;;;;;14.90;85.10;;;;;;5044542;28;19917;-86
2023/08/29 06:10:28;;;;;;;;;;;15.00;85.20;;;;;;5052625;28;19939;-86
2023/08/29 06:12:54;;;;;;;;;;;15.00;85.00;;;;;;5056699;28;20238;-87
2023/08/29 06:15:19;;;;;;;;;;;15.00;85.10;;;;;;5039695;28;19913;-87
2023/08/29 06:17:45;;;;;;;;;;;15.00;85.10;;;;;;5033670;28;19920;-86
2023/08/29 06:20:11;;;;;;;;;;;15.10;85.10;;;;;;5037036;28;19917;-87
2023/08/29 06:22:37;;;;;;;;;;;15.20;85.20;;;;;;5051096;28;19936;-86
2023/08/29 06:25:02;;;;;;;;;;;15.20;85.40;;;;;;5051614;28;19921;-87
2023/08/29 06:27:28;;;;;;;;;;;15.30;85.50;;;;;;5030949;28;19944;-86
2023/08/29 06:29:53;;;;;;;;;;;15.30;85.60;;;;;;5040471;28;19917;-86
2023/08/29 06:32:19;;;;;;;;;;;15.30;85.60;;;;;;5015688;28;19909;-87
2023/08/29 06:34:44;;;;;;;;;;;15.50;85.00;;;;;;5014872;28;19952;-86
2023/08/29 06:37:09;;;;;;;;;;;15.50;84.60;;;;;;5021484;28;19939;-87
2023/08/29 06:39:35;;;;;;;;;;;15.50;84.70;;;;;;5043668;28;19913;-86
2023/08/29 06:42:00;;;;;;;;;;;15.50;84.60;;;;;;5042461;28;19948;-86
2023/08/29 06:44:26;;;;;;;;;;;15.30;84.90;;;;;;5015093;28;19916;-85
2023/08/29 06:46:51;;;;;;;;;;;15.20;85.30;;;;;;5033182;28;19967;-86
2023/08/29 06:49:17;;;;;;;;;;;15.20;85.50;;;;;;5040839;28;19964;-87
2023/08/29 06:51:42;;;;;;;;;;;15.20;85.20;;;;;;5030229;28;19916;-86
2023/08/29 06:54:08;;;;;;;;;;;15.20;85.40;;;;;;5030501;28;19956;-87
2023/08/29 06:56:33;;;;;;;;;;;15.40;85.40;;;;;;5037669;28;19912;-86
2023/08/29 06:58:59;;;;;;;;;;;15.50;85.20;;;;;;5046677;28;19913;-88
2023/08/29 07:01:24;;;;;;;;;;;15.60;84.60;;;;;;5054709;28;20401;-87
2023/08/29 07:03:49;;;;;;;;;;;15.70;84.40;;;;;;5056352;28;20296;-87
2023/08/29 07:06:15;;;;;;;;;;;15.80;84.10;;;;;;5039111;28;19913;-87
2023/08/29 07:08:40;;;;;;;;;;;15.90;84.10;;;;;;5037600;28;20440;-87
2023/08/29 07:11:07;;;;;;;;;;;16.00;83.40;;;;;;5043802;28;19909;-87
2023/08/29 07:13:35;;;;;;;;;;;16.10;83.10;;;;;;5038101;28;19948;-87
2023/08/29 07:16:01;;;;;;;;;;;16.30;82.80;;;;;;5046262;28;20039;-87
2023/08/29 07:18:26;;;;;;;;;;;16.30;82.70;;;;;;5037673;28;19943;-87
2023/08/29 07:20:54;;;;;;;;;;;16.10;83.40;;;;;;5054746;28;19995;-87
2023/08/29 07:23:20;;;;;;;;;;;16.30;83.20;;;;;;5054605;28;20000;-87
2023/08/29 07:25:48;;;;;;;;;;;16.40;83.00;;;;;;5038441;28;20000;-87
2023/08/29 07:28:20;;;;;;;;;;;16.50;82.40;;;;;;5051020;28;19924;-87
2023/08/29 07:30:47;;;;;;;;;;;16.60;82.20;;;;;;5057386;28;20465;-87
2023/08/29 07:33:13;;;;;;;;;;;16.60;82.30;;;;;;5037971;28;19915;-87
2023/08/29 07:35:42;;;;;;;;;;;16.60;82.20;;;;;;5045675;28;20685;-87
2023/08/29 07:38:08;;;;;;;;;;;16.60;81.90;;;;;;5041568;28;19988;-87
2023/08/29 07:40:45;;;;;;;;;;;16.70;82.10;;;;;;5045975;28;19948;-87
2023/08/29 07:43:17;;;;;;;;;;;16.80;82.30;;;;;;5053939;28;19917;-87
2023/08/29 07:45:43;;;;;;;;;;;16.70;82.60;;;;;;5036292;28;19920;-87
2023/08/29 07:48:27;;;;;;;;;;;16.70;82.30;;;;;;5018714;28;19923;-87
2023/08/29 07:50:52;;;;;;;;;;;16.90;81.70;;;;;;5041053;28;19914;-87
2023/08/29 07:53:21;;;;;;;;;;;17.10;81.00;;;;;;5045797;28;19959;-87
2023/08/29 07:55:47;;;;;;;;;;;17.00;81.30;;;;;;5037097;28;19921;-88
2023/08/29 07:58:12;;;;;;;;;;;17.10;81.60;;;;;;5044592;28;20282;-87
2023/08/29 08:00:40;;;;;;;;;;;17.20;80.90;;;;;;5055933;28;20046;-87
2023/08/29 08:03:08;;;;;;;;;;;17.20;80.80;;;;;;5053112;28;20430;-87
2023/08/29 08:05:34;;;;;;;;;;;17.30;80.00;;;;;;5037267;28;19916;-87
2023/08/29 08:08:04;;;;;;;;;;;17.20;80.50;;;;;;5046417;28;19913;-87
2023/08/29 08:10:30;;;;;;;;;;;17.20;80.70;;;;;;5032482;28;20063;-87
2023/08/29 08:12:56;;;;;;;;;;;17.20;80.40;;;;;;5035473;28;19971;-87
2023/08/29 08:15:21;;;;;;;;;;;17.30;80.30;;;;;;5017136;28;19909;-86
2023/08/29 08:17:47;;;;;;;;;;;17.30;80.20;;;;;;5017600;28;19913;-87
2023/08/29 08:20:16;;;;;;;;;;;17.50;79.00;;;;;;5052536;28;19909;-87
2023/08/29 08:22:45;;;;;;;;;;;17.50;78.60;;;;;;5051017;28;19909;-87
2023/08/29 08:25:17;;;;;;;;;;;17.60;78.50;;;;;;5029640;28;19920;-86
2023/08/29 08:27:45;;;;;;;;;;;17.50;79.10;;;;;;5035052;28;19909;-86
2023/08/29 08:30:11;;;;;;;;;;;17.60;78.20;;;;;;5042383;28;19913;-86
2023/08/29 08:32:45;;;;;;;;;;;17.50;79.40;;;;;;5032100;28;19924;-87
2023/08/29 08:35:10;;;;;;;;;;;17.50;80.10;;;;;;5036260;28;19958;-86
2023/08/29 08:37:43;;;;;;;;;;;17.70;79.20;;;;;;5040878;28;19909;-86
2023/08/29 08:40:15;;;;;;;;;;;17.80;78.90;;;;;;5036005;28;19917;-86
2023/08/29 08:42:40;;;;;;;;;;;17.90;78.80;;;;;;5041163;28;20334;-87
2023/08/29 08:45:09;;;;;;;;;;;18.00;79.40;;;;;;5048992;28;19936;-86
2023/08/29 08:47:39;;;;;;;;;;;18.10;78.50;;;;;;5033616;28;19909;-87
2023/08/29 08:50:08;;;;;;;;;;;18.20;78.80;;;;;;5035484;28;20404;-87
2023/08/29 08:52:36;;;;;;;;;;;18.30;77.90;;;;;;5053328;28;19909;-87
2023/08/29 08:55:06;;;;;;;;;;;18.30;77.80;;;;;;5070567;28;19924;-86
2023/08/29 08:57:34;;;;;;;;;;;18.40;76.60;;;;;;5032959;28;20000;-86
2023/08/29 08:59:59;;;;;;;;;;;18.40;76.50;;;;;;5035862;28;20000;-86
2023/08/29 09:02:28;;;;;;;;;;;18.40;76.20;;;;;;5036115;28;19955;-87
2023/08/29 09:04:54;;;;;;;;;;;18.40;76.10;;;;;;5017381;28;20366;-86
2023/08/29 09:07:19;;;;;;;;;;;18.30;77.70;;;;;;5044315;28;19916;-87
2023/08/29 09:10:04;;;;;;;;;;;18.30;77.70;;;;;;5042454;28;19924;-87
2023/08/29 09:12:35;;;;;;;;;;;18.40;77.80;;;;;;5042731;28;19916;-87
2023/08/29 09:15:04;;;;;;;;;;;18.50;77.40;;;;;;5036630;28;19917;-87
2023/08/29 09:17:32;;;;;;;;;;;18.60;77.40;;;;;;5046314;28;19909;-86
2023/08/29 09:19:59;;;;;;;;;;;18.60;76.70;;;;;;5034458;28;19979;-86
2023/08/29 09:22:24;;;;;;;;;;;18.60;77.30;;;;;;5043209;28;19920;-86
2023/08/29 09:24:50;;;;;;;;;;;18.80;76.30;;;;;;5057878;28;20301;-88
2023/08/29 09:27:15;;;;;;;;;;;18.90;75.80;;;;;;5041163;28;19908;-88
2023/08/29 09:29:40;;;;;;;;;;;18.90;76.10;;;;;;5058415;28;19912;-88
2023/08/29 09:32:13;;;;;;;;;;;18.90;75.30;;;;;;5057209;28;20332;-88
2023/08/29 09:34:39;;;;;;;;;;;19.00;75.40;;;;;;5041434;28;20408;-90
2023/08/29 09:37:05;;;;;;;;;;;19.10;75.20;;;;;;5056908;28;19909;-88
2023/08/29 09:39:31;;;;;;;;;;;19.10;75.10;;;;;;5040432;28;20007;-88
2023/08/29 09:42:00;;;;;;;;;;;19.30;74.80;;;;;;5056277;28;20353;-88
2023/08/29 09:44:26;;;;;;;;;;;19.30;74.40;;;;;;5057730;28;19909;-87
2023/08/29 09:46:52;;;;;;;;;;;19.40;74.30;;;;;;5039664;28;20363;-88
2023/08/29 09:49:17;;;;;;;;;;;19.30;73.40;;;;;;5041361;28;19917;-88
2023/08/29 09:51:43;;;;;;;;;;;19.30;73.00;;;;;;5051570;28;19909;-88
2023/08/29 09:54:10;;;;;;;;;;;19.40;73.20;;;;;;5057599;28;20015;-88
2023/08/29 09:56:37;;;;;;;;;;;19.50;72.00;;;;;;5055719;28;19952;-87
2023/08/29 09:59:05;;;;;;;;;;;19.50;71.70;;;;;;5053807;28;20004;-88
2023/08/29 10:01:31;;;;;;;;;;;19.50;72.40;;;;;;5033524;28;20003;-88
2023/08/29 10:03:59;;;;;;;;;;;19.60;71.60;;;;;;5036868;28;19952;-88
2023/08/29 10:06:25;;;;;;;;;;;19.60;72.20;;;;;;5037545;28;19954;-88
2023/08/29 10:08:55;;;;;;;;;;;19.50;72.00;;;;;;5044428;28;19928;-88
2023/08/29 10:11:21;;;;;;;;;;;19.50;71.70;;;;;;5054801;28;20435;-89
2023/08/29 10:13:48;;;;;;;;;;;19.40;72.50;;;;;;5037424;28;19929;-88
2023/08/29 10:16:14;;;;;;;;;;;19.50;72.00;;;;;;5038032;28;19916;-88
2023/08/29 10:18:40;;;;;;;;;;;19.50;73.10;;;;;;5047006;28;19909;-91
2023/08/29 10:21:09;;;;;;;;;;;19.50;71.40;;;;;;5055998;28;19948;-89
2023/08/29 10:23:35;;;;;;;;;;;19.40;72.50;;;;;;5053346;28;19916;-91
2023/08/29 10:26:01;;;;;;;;;;;19.30;72.50;;;;;;5059908;28;20320;-89
2023/08/29 10:28:28;;;;;;;;;;;19.30;72.70;;;;;;5043997;28;19920;-89
2023/08/29 10:30:54;;;;;;;;;;;19.10;73.00;;;;;;5044498;28;20012;-89
2023/08/29 10:33:20;;;;;;;;;;;19.10;72.90;;;;;;5061289;28;19908;-89
2023/08/29 10:35:49;;;;;;;;;;;19.20;71.90;;;;;;5044500;28;19976;-90
2023/08/29 10:38:16;;;;;;;;;;;19.20;72.40;;;;;;5047141;28;20354;-89
2023/08/29 10:40:46;;;;;;;;;;;19.20;73.70;;;;;;5048517;28;20345;-89
2023/08/29 10:43:18;;;;;;;;;;;19.20;73.40;;;;;;5044626;28;20394;-88
2023/08/29 10:45:57;;;;;;;;;;;19.30;72.10;;;;;;5045996;28;19913;-89
2023/08/29 10:48:28;;;;;;;;;;;19.40;70.90;;;;;;5037013;28;19913;-88
2023/08/29 10:51:14;;;;;;;;;;;19.20;70.90;;;;;;5049886;28;19963;-88
2023/08/29 10:53:51;;;;;;;;;;;19.30;71.10;;;;;;5056779;28;20004;-88
2023/08/29 10:56:18;;;;;;;;;;;19.50;70.20;;;;;;5053804;28;20295;-88
2023/08/29 10:58:45;;;;;;;;;;;19.50;70.40;;;;;;5061674;28;19952;-88
2023/08/29 11:01:33;;;;;;;;;;;19.50;71.60;;;;;;5049030;28;19920;-88
2023/08/29 11:04:00;;;;;;;;;;;19.50;70.60;;;;;;5060234;28;19917;-88
2023/08/29 11:06:26;;;;;;;;;;;19.60;69.60;;;;;;5051941;28;19916;-88
2023/08/29 11:09:11;;;;;;;;;;;19.60;67.00;;;;;;5063627;28;19991;-87
2023/08/29 11:11:36;;;;;;;;;;;19.60;65.60;;;;;;5052084;28;19909;-88
2023/08/29 11:14:03;;;;;;;;;;;19.60;65.20;;;;;;5032971;28;19969;-88
2023/08/29 11:16:36;;;;;;;;;;;19.60;66.70;;;;;;5048929;28;19968;-88
2023/08/29 11:19:05;;;;;;;;;;;19.70;65.80;;;;;;5044696;28;19974;-89
2023/08/29 11:21:33;;;;;;;;;;;19.90;63.60;;;;;;5066650;28;19905;-88
2023/08/29 11:24:27;;;;;;;;;;;20.00;63.20;;;;;;5046918;28;19916;-89
2023/08/29 11:26:56;;;;;;;;;;;20.10;65.30;;;;;;5043626;28;19967;-89
2023/08/29 11:29:22;;;;;;;;;;;20.20;66.10;;;;;;5060162;28;19968;-89
2023/08/29 11:31:47;;;;;;;;;;;20.50;62.10;;;;;;5044261;28;20043;-88
2023/08/29 11:34:14;;;;;;;;;;;20.50;62.20;;;;;;5045107;28;19917;-89
2023/08/29 11:36:40;;;;;;;;;;;20.40;62.10;;;;;;5050271;28;19912;-89
2023/08/29 11:39:06;;;;;;;;;;;20.30;61.80;;;;;;5048733;28;19921;-89
2023/08/29 11:41:31;;;;;;;;;;;20.20;63.10;;;;;;5040067;28;19909;-88
2023/08/29 11:43:57;;;;;;;;;;;20.20;62.60;;;;;;5054834;28;19913;-87
2023/08/29 11:46:22;;;;;;;;;;;20.40;63.10;;;;;;5060040;28;19901;-88
2023/08/29 11:48:48;;;;;;;;;;;20.30;64.90;;;;;;5061735;28;19931;-88
2023/08/29 11:51:13;;;;;;;;;;;20.40;64.60;;;;;;5058114;28;19916;-87
2023/08/29 11:53:39;;;;;;;;;;;20.40;63.60;;;;;;5057154;28;19955;-88
2023/08/29 11:56:08;;;;;;;;;;;20.30;64.40;;;;;;5040245;28;19909;-88
2023/08/29 11:58:34;;;;;;;;;;;20.20;62.40;;;;;;5038490;28;20003;-88
2023/08/29 12:01:00;;;;;;;;;;;20.10;62.30;;;;;;5040795;28;19919;-87
2023/08/29 12:03:26;;;;;;;;;;;20.20;62.40;;;;;;5040990;28;19913;-87
2023/08/29 12:05:54;;;;;;;;;;;20.20;62.80;;;;;;5047801;28;19931;-88
2023/08/29 12:08:33;;;;;;;;;;;20.30;60.40;;;;;;5047781;28;19920;-87
2023/08/29 12:10:58;;;;;;;;;;;20.30;61.90;;;;;;5051458;28;19913;-87
2023/08/29 12:13:24;;;;;;;;;;;20.30;61.00;;;;;;5045869;28;19963;-88
2023/08/29 12:15:49;;;;;;;;;;;20.40;61.80;;;;;;5033072;28;19970;-90
2023/08/29 12:18:25;;;;;;;;;;;20.40;62.10;;;;;;5051266;28;19923;-87
2023/08/29 12:20:51;;;;;;;;;;;20.50;59.50;;;;;;5036430;28;19913;-88
2023/08/29 12:23:23;;;;;;;;;;;20.60;58.80;;;;;;5053330;28;19913;-88
2023/08/29 12:25:48;;;;;;;;;;;20.50;60.10;;;;;;5050692;28;19917;-87
2023/08/29 12:28:14;;;;;;;;;;;20.50;60.70;;;;;;5057052;28;19917;-86
2023/08/29 12:30:39;;;;;;;;;;;20.40;60.20;;;;;;5038711;28;19913;-86
2023/08/29 12:33:05;;;;;;;;;;;20.80;57.90;;;;;;5049862;28;19908;-89
2023/08/29 12:35:31;;;;;;;;;;;20.80;59.00;;;;;;5055618;28;20017;-89
2023/08/29 12:37:56;;;;;;;;;;;20.80;60.00;;;;;;5056751;28;20004;-87
2023/08/29 12:40:21;;;;;;;;;;;20.90;60.00;;;;;;5049590;28;20374;-88
2023/08/29 12:42:49;;;;;;;;;;;20.90;59.10;;;;;;5050585;28;20366;-89
2023/08/29 12:45:15;;;;;;;;;;;20.80;60.40;;;;;;5037058;28;19912;-89
2023/08/29 12:47:40;;;;;;;;;;;20.70;59.40;;;;;;5057131;28;19935;-87
2023/08/29 12:50:06;;;;;;;;;;;20.60;60.40;;;;;;5033051;28;20111;-85
2023/08/29 12:52:31;;;;;;;;;;;20.50;61.10;;;;;;5035913;28;19971;-86
2023/08/29 12:54:57;;;;;;;;;;;20.40;62.00;;;;;;5054675;28;20281;-86
2023/08/29 12:57:22;;;;;;;;;;;20.40;62.00;;;;;;5037674;28;20012;-87
2023/08/29 12:59:48;;;;;;;;;;;20.40;60.80;;;;;;5036962;28;20250;-86
2023/08/29 13:02:13;;;;;;;;;;;20.40;61.60;;;;;;5056101;28;19912;-85
2023/08/29 13:04:39;;;;;;;;;;;20.30;60.60;;;;;;5056212;28;19925;-86
2023/08/29 13:07:05;;;;;;;;;;;20.20;61.00;;;;;;5031236;28;20378;-86
2023/08/29 13:09:30;;;;;;;;;;;20.30;60.80;;;;;;5050959;28;19944;-87
2023/08/29 13:11:56;;;;;;;;;;;20.50;61.40;;;;;;5045066;28;20327;-87
2023/08/29 13:14:21;;;;;;;;;;;20.40;59.80;;;;;;5065048;28;19945;-87
2023/08/29 13:16:47;;;;;;;;;;;20.50;58.10;;;;;;5053454;28;20445;-86
2023/08/29 13:19:12;;;;;;;;;;;20.50;55.80;;;;;;5036232;28;19956;-87
2023/08/29 13:21:37;;;;;;;;;;;20.60;55.90;;;;;;5053323;28;19917;-89
2023/08/29 13:24:03;;;;;;;;;;;20.60;56.90;;;;;;5052434;28;20454;-86
2023/08/29 13:26:28;;;;;;;;;;;20.70;55.20;;;;;;5053613;28;20105;-86
2023/08/29 13:28:54;;;;;;;;;;;20.60;54.10;;;;;;5051264;28;20002;-87
2023/08/29 13:31:22;;;;;;;;;;;20.70;54.50;;;;;;5049051;28;19975;-88
2023/08/29 13:33:48;;;;;;;;;;;20.80;55.30;;;;;;5037315;28;19917;-89
2023/08/29 13:36:14;;;;;;;;;;;20.70;56.20;;;;;;5038662;28;19913;-90
2023/08/29 13:38:39;;;;;;;;;;;20.80;54.40;;;;;;5050072;28;19914;-89
2023/08/29 13:41:07;;;;;;;;;;;20.90;53.40;;;;;;5040029;28;19913;-89
2023/08/29 13:43:33;;;;;;;;;;;21.00;53.10;;;;;;5038276;28;20390;-88
2023/08/29 13:45:59;;;;;;;;;;;21.00;54.80;;;;;;5038779;28;19970;-88
2023/08/29 13:48:25;;;;;;;;;;;20.90;53.60;;;;;;5030993;28;20000;-89
2023/08/29 13:50:53;;;;;;;;;;;20.90;53.00;;;;;;5045942;28;19949;-89
2023/08/29 13:53:19;;;;;;;;;;;21.00;53.00;;;;;;5044161;28;19924;-84
2023/08/29 13:55:44;;;;;;;;;;;20.90;53.00;;;;;;5037449;28;19913;-89
2023/08/29 13:58:10;;;;;;;;;;;20.80;55.10;;;;;;5050697;28;19912;-88
2023/08/29 14:00:35;;;;;;;;;;;20.80;56.00;;;;;;5035524;28;19921;-88
2023/08/29 14:03:01;;;;;;;;;;;20.90;56.70;;;;;;5036665;28;20294;-88
2023/08/29 14:05:27;;;;;;;;;;;21.00;57.50;;;;;;5038324;28;19908;-88
2023/08/29 14:07:53;;;;;;;;;;;21.20;56.20;;;;;;5058900;28;19921;-89
2023/08/29 14:10:18;;;;;;;;;;;21.30;56.10;;;;;;5045880;28;19955;-88
2023/08/29 14:12:44;;;;;;;;;;;21.40;55.80;;;;;;5054572;28;19980;-88
2023/08/29 14:15:10;;;;;;;;;;;21.50;56.00;;;;;;5044017;28;20419;-88
2023/08/29 14:17:35;;;;;;;;;;;21.60;55.30;;;;;;5034479;28;19916;-87
2023/08/29 14:20:05;;;;;;;;;;;21.50;56.10;;;;;;5048976;28;19916;-88
2023/08/29 14:22:30;;;;;;;;;;;21.50;56.50;;;;;;5051362;28;19927;-88
2023/08/29 14:24:56;;;;;;;;;;;21.50;55.30;;;;;;5036395;28;19909;-87
2023/08/29 14:27:21;;;;;;;;;;;21.30;55.30;;;;;;5051906;28;19913;-88
2023/08/29 14:29:50;;;;;;;;;;;21.40;55.00;;;;;;5064922;23;20040;-83
2023/08/29 14:32:15;;;;;;;;;;;21.30;54.00;;;;;;5042961;28;19963;-83
2023/08/29 14:34:41;;;;;;;;;;;21.20;54.70;;;;;;5044282;28;20371;-83
2023/08/29 14:37:06;;;;;;;;;;;21.10;55.80;;;;;;5028731;28;19927;-83
2023/08/29 14:39:33;;;;;;;;;;;21.10;55.40;;;;;;5045792;28;20335;-83
2023/08/29 14:41:58;;;;;;;;;;;21.10;53.40;;;;;;5014787;28;19964;-83
2023/08/29 14:44:24;;;;;;;;;;;21.10;54.40;;;;;;5012859;28;19957;-84
2023/08/29 14:46:49;;;;;;;;;;;21.00;54.70;;;;;;5041982;28;19910;-86
2023/08/29 14:49:15;;;;;;;;;;;21.00;55.50;;;;;;5022992;28;19956;-85
2023/08/29 14:51:41;;;;;;;;;;;21.00;54.20;;;;;;5015211;28;19903;-84
2023/08/29 14:54:06;;;;;;;;;;;20.90;53.80;;;;;;5040590;28;19920;-84
2023/08/29 14:56:32;;;;;;;;;;;20.90;55.80;;;;;;5015792;28;20013;-85
2023/08/29 14:58:57;;;;;;;;;;;20.80;55.70;;;;;;5022721;28;19975;-85
2023/08/29 15:01:24;;;;;;;;;;;21.00;53.70;;;;;;5034072;28;19918;-84
2023/08/29 15:03:50;;;;;;;;;;;21.00;55.00;;;;;;5026982;28;19919;-86
2023/08/29 15:06:16;;;;;;;;;;;21.00;55.40;;;;;;5003349;28;19929;-86
2023/08/29 15:08:42;;;;;;;;;;;21.10;53.40;;;;;;5019044;28;19922;-86
2023/08/29 15:11:07;;;;;;;;;;;21.10;55.30;;;;;;5017229;28;20391;-86
2023/08/29 15:13:59;;;;;;;;;;;21.10;53.00;;;;;;5014045;28;19918;-86
2023/08/29 15:16:25;;;;;;;;;;;21.20;52.20;;;;;;5006145;28;19913;-86